sensor_id;sensor_type;location;lat;lon;timestamp;pressure;altitude;pressure_sealevel;temperature;humidity
55685;BME280;41883;49.544;8.646;2023-03-21T00:01:40;100789.94;;;8.68;71.26
55685;BME280;41883;49.544;8.646;2023-03-21T00:04:05;100791.59;;;8.69;71.34
55685;BME280;41883;49.544;8.646;2023-03-21T00:06:30;100786.03;;;8.72;71.34
55685;BME280;41883;49.544;8.646;2023-03-21T00:08:56;100794.66;;;8.74;71.61
55685;BME280;41883;49.544;8.646;2023-03-21T00:11:21;100786.63;;;8.76;71.71
55685;BME280;41883;49.544;8.646;2023-03-21T00:13:48;100783.16;;;8.75;71.58
55685;BME280;41883;49.544;8.646;2023-03-21T00:16:16;100772.47;;;8.77;71.53
55685;BME280;41883;49.544;8.646;2023-03-21T00:18:47;100778.44;;;8.79;71.54
55685;BME280;41883;49.544;8.646;2023-03-21T00:21:15;100771.22;;;8.81;71.41
55685;BME280;41883;49.544;8.646;2023-03-21T00:23:41;100768.72;;;8.79;71.94
55685;BME280;41883;49.544;8.646;2023-03-21T00:26:07;100766.78;;;8.81;72.02
55685;BME280;41883;49.544;8.646;2023-03-21T00:28:38;100765.97;;;8.81;71.70
55685;BME280;41883;49.544;8.646;2023-03-21T00:31:04;100759.84;;;8.80;71.83
55685;BME280;41883;49.544;8.646;2023-03-21T00:33:30;100764.03;;;8.83;72.20
55685;BME280;41883;49.544;8.646;2023-03-21T00:35:56;100757.94;;;8.82;72.08
55685;BME280;41883;49.544;8.646;2023-03-21T00:38:23;100759.69;;;8.82;72.39
55685;BME280;41883;49.544;8.646;2023-03-21T00:40:48;100756.13;;;8.83;72.18
55685;BME280;41883;49.544;8.646;2023-03-21T00:43:14;100757.06;;;8.82;72.46
55685;BME280;41883;49.544;8.646;2023-03-21T00:45:44;100747.78;;;8.78;73.62
55685;BME280;41883;49.544;8.646;2023-03-21T00:48:11;100747.19;;;8.74;73.75
55685;BME280;41883;49.544;8.646;2023-03-21T00:50:39;100743.03;;;8.71;74.18
55685;BME280;41883;49.544;8.646;2023-03-21T00:53:06;100749.69;;;8.66;75.16
55685;BME280;41883;49.544;8.646;2023-03-21T00:55:32;100739.25;;;8.64;73.87
55685;BME280;41883;49.544;8.646;2023-03-21T00:57:58;100746.22;;;8.65;73.67
55685;BME280;41883;49.544;8.646;2023-03-21T01:00:25;100743.03;;;8.71;73.14
55685;BME280;41883;49.544;8.646;2023-03-21T01:02:51;100735.00;;;8.73;73.32
55685;BME280;41883;49.544;8.646;2023-03-21T01:05:23;100740.13;;;8.75;73.77
55685;BME280;41883;49.544;8.646;2023-03-21T01:08:10;100733.91;;;8.76;73.55
55685;BME280;41883;49.544;8.646;2023-03-21T01:10:42;100735.56;;;8.77;73.67
55685;BME280;41883;49.544;8.646;2023-03-21T01:13:13;100734.84;;;8.75;73.57
55685;BME280;41883;49.544;8.646;2023-03-21T01:15:47;100728.19;;;8.70;74.58
55685;BME280;41883;49.544;8.646;2023-03-21T01:18:15;100723.16;;;8.67;74.46
55685;BME280;41883;49.544;8.646;2023-03-21T01:20:42;100725.97;;;8.66;73.89
55685;BME280;41883;49.544;8.646;2023-03-21T01:23:09;100733.72;;;8.67;73.76
55685;BME280;41883;49.544;8.646;2023-03-21T01:25:35;100725.81;;;8.67;73.62
55685;BME280;41883;49.544;8.646;2023-03-21T01:28:00;100717.91;;;8.67;73.42
55685;BME280;41883;49.544;8.646;2023-03-21T01:30:26;100721.25;;;8.69;73.32
55685;BME280;41883;49.544;8.646;2023-03-21T01:32:53;100717.66;;;8.70;73.84
55685;BME280;41883;49.544;8.646;2023-03-21T01:35:19;100717.06;;;8.67;74.15
55685;BME280;41883;49.544;8.646;2023-03-21T01:37:45;100717.06;;;8.67;73.80
55685;BME280;41883;49.544;8.646;2023-03-21T01:40:15;100717.06;;;8.67;73.79
55685;BME280;41883;49.544;8.646;2023-03-21T01:42:41;100716.38;;;8.65;74.58
55685;BME280;41883;49.544;8.646;2023-03-21T01:48:11;100707.47;;;8.56;74.41
55685;BME280;41883;49.544;8.646;2023-03-21T01:50:39;100707.59;;;8.55;74.00
55685;BME280;41883;49.544;8.646;2023-03-21T01:53:06;100708.44;;;8.55;73.65
55685;BME280;41883;49.544;8.646;2023-03-21T01:55:32;100711.78;;;8.57;74.10
55685;BME280;41883;49.544;8.646;2023-03-21T01:57:59;100710.94;;;8.57;74.37
55685;BME280;41883;49.544;8.646;2023-03-21T02:01:04;100705.69;;;8.57;76.40
55685;BME280;41883;49.544;8.646;2023-03-21T02:03:53;100703.56;;;8.50;75.76
55685;BME280;41883;49.544;8.646;2023-03-21T02:10:15;100701.91;;;8.49;76.03
55685;BME280;41883;49.544;8.646;2023-03-21T02:39:47;100672.09;;;8.49;75.70
55685;BME280;41883;49.544;8.646;2023-03-21T02:49:39;100668.06;;;8.45;76.18
55685;BME280;41883;49.544;8.646;2023-03-21T02:52:30;100664.44;;;8.46;76.21
55685;BME280;41883;49.544;8.646;2023-03-21T02:55:35;100670.56;;;8.46;76.71
55685;BME280;41883;49.544;8.646;2023-03-21T02:58:27;100673.03;;;8.48;76.44
55685;BME280;41883;49.544;8.646;2023-03-21T03:01:25;100671.50;;;8.45;76.52
55685;BME280;41883;49.544;8.646;2023-03-21T03:33:48;100657.94;;;7.88;77.38
55685;BME280;41883;49.544;8.646;2023-03-21T03:36:47;100659.75;;;7.88;77.51
55685;BME280;41883;49.544;8.646;2023-03-21T03:43:05;100649.94;;;7.90;77.60
55685;BME280;41883;49.544;8.646;2023-03-21T03:46:04;100654.50;;;7.88;77.92
55685;BME280;41883;49.544;8.646;2023-03-21T03:52:16;100657.78;;;7.80;78.80
55685;BME280;41883;49.544;8.646;2023-03-21T03:54:48;100656.81;;;7.81;78.76
55685;BME280;41883;49.544;8.646;2023-03-21T03:57:37;100662.78;;;7.83;78.67
55685;BME280;41883;49.544;8.646;2023-03-21T04:00:45;100663.38;;;7.87;78.58
55685;BME280;41883;49.544;8.646;2023-03-21T04:12:54;100659.69;;;7.99;78.02
55685;BME280;41883;49.544;8.646;2023-03-21T04:16:07;100652.47;;;8.01;77.71
55685;BME280;41883;49.544;8.646;2023-03-21T04:19:02;100651.38;;;8.04;77.99
55685;BME280;41883;49.544;8.646;2023-03-21T04:24:43;100645.13;;;8.05;77.92
55685;BME280;41883;49.544;8.646;2023-03-21T04:27:29;100643.59;;;8.02;78.20
55685;BME280;41883;49.544;8.646;2023-03-21T04:30:27;100642.19;;;7.98;78.26
55685;BME280;41883;49.544;8.646;2023-03-21T04:33:20;100648.00;;;7.92;78.42
55685;BME280;41883;49.544;8.646;2023-03-21T04:36:18;100637.47;;;7.92;78.28
55685;BME280;41883;49.544;8.646;2023-03-21T04:38:57;100646.19;;;7.93;78.25
55685;BME280;41883;49.544;8.646;2023-03-21T04:44:39;100644.38;;;7.93;78.06
55685;BME280;41883;49.544;8.646;2023-03-21T04:47:33;100644.38;;;7.93;78.34
55685;BME280;41883;49.544;8.646;2023-03-21T04:50:17;100642.84;;;7.91;78.90
55685;BME280;41883;49.544;8.646;2023-03-21T04:52:56;100644.94;;;7.87;78.63
55685;BME280;41883;49.544;8.646;2023-03-21T04:58:32;100643.47;;;7.73;78.74
55685;BME280;41883;49.544;8.646;2023-03-21T05:01:01;100638.59;;;7.69;78.70
55685;BME280;41883;49.544;8.646;2023-03-21T05:03:26;100640.63;;;7.65;78.68
55685;BME280;41883;49.544;8.646;2023-03-21T05:05:53;100634.94;;;7.60;78.77
55685;BME280;41883;49.544;8.646;2023-03-21T05:08:19;100638.66;;;7.57;79.18
55685;BME280;41883;49.544;8.646;2023-03-21T05:10:44;100632.56;;;7.57;79.18
55685;BME280;41883;49.544;8.646;2023-03-21T05:13:10;100636.84;;;7.58;79.29
55685;BME280;41883;49.544;8.646;2023-03-21T05:15:35;100639.75;;;7.55;79.28
55685;BME280;41883;49.544;8.646;2023-03-21T05:18:01;100638.09;;;7.54;78.97
55685;BME280;41883;49.544;8.646;2023-03-21T05:20:36;100639.63;;;7.56;79.29
55685;BME280;41883;49.544;8.646;2023-03-21T05:23:02;100639.50;;;7.58;79.30
55685;BME280;41883;49.544;8.646;2023-03-21T05:25:32;100639.25;;;7.61;79.12
55685;BME280;41883;49.544;8.646;2023-03-21T05:28:05;100634.81;;;7.61;79.38
55685;BME280;41883;49.544;8.646;2023-03-21T05:30:31;100631.22;;;7.62;79.38
55685;BME280;41883;49.544;8.646;2023-03-21T05:32:56;100628.47;;;7.64;79.32
55685;BME280;41883;49.544;8.646;2023-03-21T05:35:22;100635.25;;;7.66;79.17
55685;BME280;41883;49.544;8.646;2023-03-21T05:37:47;100631.53;;;7.69;79.36
55685;BME280;41883;49.544;8.646;2023-03-21T05:40:12;100620.28;;;7.67;79.42
55685;BME280;41883;49.544;8.646;2023-03-21T05:42:38;100625.56;;;7.67;79.27
55685;BME280;41883;49.544;8.646;2023-03-21T05:45:06;100624.59;;;7.68;78.99
55685;BME280;41883;49.544;8.646;2023-03-21T05:47:31;100615.75;;;7.69;79.11
55685;BME280;41883;49.544;8.646;2023-03-21T05:49:57;100623.34;;;7.72;79.23
55685;BME280;41883;49.544;8.646;2023-03-21T05:52:22;100620.59;;;7.74;79.32
55685;BME280;41883;49.544;8.646;2023-03-21T05:54:48;100622.97;;;7.77;79.03
55685;BME280;41883;49.544;8.646;2023-03-21T05:57:13;100625.22;;;7.81;78.97
55685;BME280;41883;49.544;8.646;2023-03-21T05:59:39;100618.16;;;7.82;78.70
55685;BME280;41883;49.544;8.646;2023-03-21T06:02:04;100622.47;;;7.83;78.81
55685;BME280;41883;49.544;8.646;2023-03-21T06:04:30;100624.13;;;7.84;78.49
55685;BME280;41883;49.544;8.646;2023-03-21T06:06:55;100626.19;;;7.80;79.03
55685;BME280;41883;49.544;8.646;2023-03-21T06:09:21;100631.72;;;7.77;79.24
55685;BME280;41883;49.544;8.646;2023-03-21T06:11:49;100632.81;;;7.75;79.25
55685;BME280;41883;49.544;8.646;2023-03-21T06:14:15;100632.66;;;7.76;79.22
55685;BME280;41883;49.544;8.646;2023-03-21T06:16:40;100633.09;;;7.81;79.18
55685;BME280;41883;49.544;8.646;2023-03-21T06:19:06;100637.50;;;8.02;79.83
55685;BME280;41883;49.544;8.646;2023-03-21T06:21:31;100634.38;;;8.58;80.02
55685;BME280;41883;49.544;8.646;2023-03-21T06:23:57;100638.72;;;9.27;79.31
55685;BME280;41883;49.544;8.646;2023-03-21T06:26:22;100636.63;;;9.88;78.38
55685;BME280;41883;49.544;8.646;2023-03-21T06:28:49;100637.28;;;10.55;77.22
55685;BME280;41883;49.544;8.646;2023-03-21T06:31:14;100633.47;;;11.03;76.52
55685;BME280;41883;49.544;8.646;2023-03-21T06:33:40;100638.94;;;11.45;74.34
55685;BME280;41883;49.544;8.646;2023-03-21T06:36:06;100641.06;;;11.68;73.00
55685;BME280;41883;49.544;8.646;2023-03-21T06:38:32;100639.84;;;12.15;72.44
55685;BME280;41883;49.544;8.646;2023-03-21T06:40:57;100642.00;;;12.62;71.32
55685;BME280;41883;49.544;8.646;2023-03-21T06:43:23;100652.69;;;13.19;69.73
55685;BME280;41883;49.544;8.646;2023-03-21T06:45:48;100651.34;;;13.72;67.99
55685;BME280;41883;49.544;8.646;2023-03-21T06:48:13;100651.09;;;13.98;66.36
55685;BME280;41883;49.544;8.646;2023-03-21T06:50:39;100652.00;;;13.83;63.34
55685;BME280;41883;49.544;8.646;2023-03-21T06:53:04;100650.88;;;13.52;64.25
55685;BME280;41883;49.544;8.646;2023-03-21T06:55:30;100653.69;;;13.26;60.87
55685;BME280;41883;49.544;8.646;2023-03-21T06:57:56;100647.53;;;13.01;63.10
55685;BME280;41883;49.544;8.646;2023-03-21T07:00:22;100645.03;;;12.83;63.73
55685;BME280;41883;49.544;8.646;2023-03-21T07:02:48;100643.53;;;12.81;64.16
55685;BME280;41883;49.544;8.646;2023-03-21T07:05:14;100649.47;;;12.74;62.21
55685;BME280;41883;49.544;8.646;2023-03-21T07:07:40;100643.66;;;12.63;62.78
55685;BME280;41883;49.544;8.646;2023-03-21T07:10:06;100651.31;;;12.66;62.63
55685;BME280;41883;49.544;8.646;2023-03-21T07:12:33;100652.63;;;12.70;62.25
55685;BME280;41883;49.544;8.646;2023-03-21T07:15:02;100650.81;;;12.70;61.54
55685;BME280;41883;49.544;8.646;2023-03-21T07:17:28;100645.66;;;12.69;61.24
55685;BME280;41883;49.544;8.646;2023-03-21T07:19:54;100650.31;;;12.67;60.91
55685;BME280;41883;49.544;8.646;2023-03-21T07:22:21;100639.38;;;12.78;60.67
55685;BME280;41883;49.544;8.646;2023-03-21T07:24:47;100641.84;;;12.80;60.02
55685;BME280;41883;49.544;8.646;2023-03-21T07:27:16;100647.22;;;13.04;60.16
55685;BME280;41883;49.544;8.646;2023-03-21T07:29:42;100643.94;;;13.35;60.85
55685;BME280;41883;49.544;8.646;2023-03-21T07:32:08;100641.59;;;14.12;59.85
55685;BME280;41883;49.544;8.646;2023-03-21T07:34:34;100642.00;;;14.72;58.53
55685;BME280;41883;49.544;8.646;2023-03-21T07:37:00;100638.25;;;15.04;57.09
55685;BME280;41883;49.544;8.646;2023-03-21T07:39:26;100640.88;;;15.50;55.24
55685;BME280;41883;49.544;8.646;2023-03-21T07:41:52;100635.06;;;15.84;54.09
55685;BME280;41883;49.544;8.646;2023-03-21T07:44:20;100632.13;;;15.94;51.81
55685;BME280;41883;49.544;8.646;2023-03-21T07:46:45;100632.13;;;15.79;53.27
55685;BME280;41883;49.544;8.646;2023-03-21T07:49:10;100634.88;;;15.71;53.31
55685;BME280;41883;49.544;8.646;2023-03-21T07:51:36;100637.63;;;15.78;53.72
55685;BME280;41883;49.544;8.646;2023-03-21T07:54:01;100642.41;;;15.82;53.12
55685;BME280;41883;49.544;8.646;2023-03-21T07:56:27;100634.38;;;15.67;52.55
55685;BME280;41883;49.544;8.646;2023-03-21T07:58:53;100636.53;;;15.49;52.82
55685;BME280;41883;49.544;8.646;2023-03-21T08:01:19;100644.91;;;15.46;53.60
55685;BME280;41883;49.544;8.646;2023-03-21T08:03:46;100644.53;;;15.34;51.89
55685;BME280;41883;49.544;8.646;2023-03-21T08:06:12;100645.19;;;15.13;52.48
55685;BME280;41883;49.544;8.646;2023-03-21T08:08:37;100647.22;;;14.88;53.09
55685;BME280;41883;49.544;8.646;2023-03-21T08:11:03;100648.28;;;14.79;53.68
55685;BME280;41883;49.544;8.646;2023-03-21T08:13:29;100650.13;;;14.78;52.90
55685;BME280;41883;49.544;8.646;2023-03-21T08:15:54;100653.78;;;15.00;54.08
55685;BME280;41883;49.544;8.646;2023-03-21T08:18:20;100657.03;;;15.48;53.36
55685;BME280;41883;49.544;8.646;2023-03-21T08:20:50;100653.19;;;15.74;52.31
55685;BME280;41883;49.544;8.646;2023-03-21T08:23:15;100641.41;;;15.98;52.15
55685;BME280;41883;49.544;8.646;2023-03-21T08:25:41;100637.47;;;16.09;50.56
55685;BME280;41883;49.544;8.646;2023-03-21T08:28:06;100644.91;;;16.28;51.48
55685;BME280;41883;49.544;8.646;2023-03-21T08:30:31;100636.41;;;16.61;51.01
55685;BME280;41883;49.544;8.646;2023-03-21T08:32:58;100641.84;;;17.04;49.46
55685;BME280;41883;49.544;8.646;2023-03-21T08:35:24;100641.94;;;17.17;47.21
55685;BME280;41883;49.544;8.646;2023-03-21T08:37:50;100641.28;;;17.37;48.94
55685;BME280;41883;49.544;8.646;2023-03-21T08:40:17;100637.16;;;17.34;47.56
55685;BME280;41883;49.544;8.646;2023-03-21T08:42:43;100630.22;;;16.90;48.17
55685;BME280;41883;49.544;8.646;2023-03-21T08:45:11;100635.53;;;16.90;48.73
55685;BME280;41883;49.544;8.646;2023-03-21T08:47:37;100640.03;;;16.90;49.04
55685;BME280;41883;49.544;8.646;2023-03-21T08:50:04;100634.22;;;16.65;47.78
55685;BME280;41883;49.544;8.646;2023-03-21T08:52:33;100639.25;;;16.38;48.93
55685;BME280;41883;49.544;8.646;2023-03-21T08:54:59;100638.44;;;16.23;48.60
55685;BME280;41883;49.544;8.646;2023-03-21T08:57:26;100642.06;;;15.85;48.84
55685;BME280;41883;49.544;8.646;2023-03-21T08:59:51;100635.34;;;15.75;49.52
55685;BME280;41883;49.544;8.646;2023-03-21T09:02:17;100638.06;;;15.66;49.78
55685;BME280;41883;49.544;8.646;2023-03-21T09:04:42;100631.59;;;15.61;49.92
55685;BME280;41883;49.544;8.646;2023-03-21T09:07:10;100636.94;;;15.61;50.09
55685;BME280;41883;49.544;8.646;2023-03-21T09:09:38;100633.94;;;15.64;50.49
55685;BME280;41883;49.544;8.646;2023-03-21T09:12:03;100629.72;;;15.84;50.68
55685;BME280;41883;49.544;8.646;2023-03-21T09:14:29;100636.91;;;15.99;49.69
55685;BME280;41883;49.544;8.646;2023-03-21T09:16:54;100637.91;;;15.98;48.78
55685;BME280;41883;49.544;8.646;2023-03-21T09:19:20;100637.63;;;16.07;48.83
55685;BME280;41883;49.544;8.646;2023-03-21T09:21:46;100636.72;;;16.15;49.23
55685;BME280;41883;49.544;8.646;2023-03-21T09:24:12;100625.91;;;16.38;49.07
55685;BME280;41883;49.544;8.646;2023-03-21T09:26:39;100633.72;;;16.76;49.44
55685;BME280;41883;49.544;8.646;2023-03-21T09:29:05;100633.28;;;17.15;48.22
55685;BME280;41883;49.544;8.646;2023-03-21T09:31:31;100626.06;;;17.09;46.17
55685;BME280;41883;49.544;8.646;2023-03-21T09:33:57;100623.25;;;16.96;47.56
55685;BME280;41883;49.544;8.646;2023-03-21T09:36:24;100634.25;;;16.86;47.55
55685;BME280;41883;49.544;8.646;2023-03-21T09:38:52;100635.69;;;16.67;47.94
55685;BME280;41883;49.544;8.646;2023-03-21T09:41:30;100633.66;;;16.69;47.82
55685;BME280;41883;49.544;8.646;2023-03-21T09:49:38;100630.53;;;16.29;49.04
55685;BME280;41883;49.544;8.646;2023-03-21T09:52:12;100632.34;;;16.44;49.36
55685;BME280;41883;49.544;8.646;2023-03-21T09:54:41;100639.38;;;16.66;49.25
55685;BME280;41883;49.544;8.646;2023-03-21T09:57:40;100639.81;;;16.70;48.13
55685;BME280;41883;49.544;8.646;2023-03-21T10:00:15;100636.28;;;16.48;47.79
55685;BME280;41883;49.544;8.646;2023-03-21T10:02:49;100632.06;;;16.39;48.28
55685;BME280;41883;49.544;8.646;2023-03-21T10:05:19;100634.34;;;16.42;48.67
55685;BME280;41883;49.544;8.646;2023-03-21T10:08:05;100635.16;;;16.57;48.50
55685;BME280;41883;49.544;8.646;2023-03-21T10:10:50;100636.72;;;16.51;48.31
55685;BME280;41883;49.544;8.646;2023-03-21T10:13:25;100641.88;;;16.53;48.16
55685;BME280;41883;49.544;8.646;2023-03-21T10:16:11;100636.72;;;16.51;47.64
55685;BME280;41883;49.544;8.646;2023-03-21T10:18:39;100631.50;;;16.43;47.99
55685;BME280;41883;49.544;8.646;2023-03-21T10:21:06;100636.03;;;16.43;48.06
55685;BME280;41883;49.544;8.646;2023-03-21T10:23:32;100631.84;;;16.55;48.40
55685;BME280;41883;49.544;8.646;2023-03-21T10:26:03;100633.53;;;16.41;47.70
55685;BME280;41883;49.544;8.646;2023-03-21T10:28:39;100630.94;;;16.48;48.24
55685;BME280;41883;49.544;8.646;2023-03-21T10:31:08;100626.47;;;16.70;48.28
55685;BME280;41883;49.544;8.646;2023-03-21T10:33:39;100620.16;;;16.77;47.64
55685;BME280;41883;49.544;8.646;2023-03-21T10:36:10;100619.09;;;16.72;47.18
55685;BME280;41883;49.544;8.646;2023-03-21T10:38:39;100619.41;;;16.62;47.54
55685;BME280;41883;49.544;8.646;2023-03-21T10:41:09;100611.75;;;16.38;46.57
55685;BME280;41883;49.544;8.646;2023-03-21T10:43:37;100606.81;;;16.20;47.40
55685;BME280;41883;49.544;8.646;2023-03-21T10:46:11;100603.56;;;16.24;48.00
55685;BME280;41883;49.544;8.646;2023-03-21T10:48:39;100608.63;;;16.34;48.19
55685;BME280;41883;49.544;8.646;2023-03-21T10:51:07;100596.09;;;16.34;48.23
55685;BME280;41883;49.544;8.646;2023-03-21T10:53:45;100595.75;;;16.38;47.81
55685;BME280;41883;49.544;8.646;2023-03-21T10:56:11;100599.31;;;16.45;48.29
55685;BME280;41883;49.544;8.646;2023-03-21T10:58:41;100606.97;;;16.33;47.17
55685;BME280;41883;49.544;8.646;2023-03-21T11:01:11;100593.72;;;16.25;48.09
55685;BME280;41883;49.544;8.646;2023-03-21T11:03:41;100596.31;;;16.18;48.56
55685;BME280;41883;49.544;8.646;2023-03-21T11:08:44;100592.59;;;15.83;49.36
55685;BME280;41883;49.544;8.646;2023-03-21T11:11:11;100604.41;;;15.65;50.42
55685;BME280;41883;49.544;8.646;2023-03-21T11:13:43;100602.28;;;15.46;50.89
55685;BME280;41883;49.544;8.646;2023-03-21T11:16:10;100600.41;;;15.32;50.61
55685;BME280;41883;49.544;8.646;2023-03-21T11:18:40;100595.22;;;15.15;50.80
55685;BME280;41883;49.544;8.646;2023-03-21T11:21:07;100597.59;;;15.10;51.53
55685;BME280;41883;49.544;8.646;2023-03-21T11:23:33;100592.66;;;15.07;51.10
55685;BME280;41883;49.544;8.646;2023-03-21T11:26:00;100591.66;;;15.23;51.81
55685;BME280;41883;49.544;8.646;2023-03-21T11:28:31;100590.41;;;15.48;51.31
55685;BME280;41883;49.544;8.646;2023-03-21T11:30:58;100583.63;;;15.46;51.05
55685;BME280;41883;49.544;8.646;2023-03-21T11:33:27;100584.03;;;15.20;51.93
55685;BME280;41883;49.544;8.646;2023-03-21T11:38:24;100577.34;;;15.24;51.52
55685;BME280;41883;49.544;8.646;2023-03-21T11:40:52;100579.91;;;15.32;51.55
55685;BME280;41883;49.544;8.646;2023-03-21T11:48:27;100572.50;;;15.42;51.16
55685;BME280;41883;49.544;8.646;2023-03-21T11:51:03;100568.44;;;15.17;51.08
55685;BME280;41883;49.544;8.646;2023-03-21T11:53:36;100567.75;;;15.00;51.35
55685;BME280;41883;49.544;8.646;2023-03-21T11:56:25;100564.94;;;15.16;52.10
55685;BME280;41883;49.544;8.646;2023-03-21T12:07:04;100552.94;;;15.50;50.16
55685;BME280;41883;49.544;8.646;2023-03-21T12:12:22;100536.41;;;15.40;50.07
55685;BME280;41883;49.544;8.646;2023-03-21T12:17:39;100528.03;;;15.28;50.46
55685;BME280;41883;49.544;8.646;2023-03-21T12:23:00;100516.34;;;15.29;49.99
55685;BME280;41883;49.544;8.646;2023-03-21T12:25:26;100513.69;;;15.59;50.11
55685;BME280;41883;49.544;8.646;2023-03-21T12:28:00;100516.34;;;15.88;49.58
55685;BME280;41883;49.544;8.646;2023-03-21T12:45:47;100495.56;;;16.85;46.45
55685;BME280;41883;49.544;8.646;2023-03-21T12:48:16;100486.00;;;16.97;45.49
55685;BME280;41883;49.544;8.646;2023-03-21T12:50:43;100487.03;;;16.96;46.09
55685;BME280;41883;49.544;8.646;2023-03-21T12:55:53;100479.53;;;17.13;45.35
55685;BME280;41883;49.544;8.646;2023-03-21T12:58:21;100478.38;;;17.22;45.50
55685;BME280;41883;49.544;8.646;2023-03-21T13:03:17;100474.66;;;17.16;44.98
55685;BME280;41883;49.544;8.646;2023-03-21T13:10:36;100473.78;;;17.16;45.44
55685;BME280;41883;49.544;8.646;2023-03-21T13:15:46;100462.06;;;17.10;44.48
55685;BME280;41883;49.544;8.646;2023-03-21T13:23:35;100457.69;;;17.03;45.06
55685;BME280;41883;49.544;8.646;2023-03-21T13:26:01;100455.78;;;16.96;44.92
55685;BME280;41883;49.544;8.646;2023-03-21T13:28:28;100450.38;;;16.83;45.29
55685;BME280;41883;49.544;8.646;2023-03-21T13:30:59;100449.13;;;16.58;44.98
55685;BME280;41883;49.544;8.646;2023-03-21T13:33:38;100441.88;;;16.51;45.14
55685;BME280;41883;49.544;8.646;2023-03-21T13:36:11;100444.88;;;16.42;45.28
55685;BME280;41883;49.544;8.646;2023-03-21T13:38:37;100441.19;;;16.43;45.74
55685;BME280;41883;49.544;8.646;2023-03-21T13:41:12;100443.06;;;16.42;46.14
55685;BME280;41883;49.544;8.646;2023-03-21T13:46:07;100443.66;;;16.44;45.70
55685;BME280;41883;49.544;8.646;2023-03-21T13:48:41;100436.50;;;16.23;46.05
55685;BME280;41883;49.544;8.646;2023-03-21T13:51:06;100434.34;;;16.12;46.87
55685;BME280;41883;49.544;8.646;2023-03-21T13:53:35;100428.22;;;15.97;46.34
55685;BME280;41883;49.544;8.646;2023-03-21T14:09:21;100413.63;;;14.44;52.34
55685;BME280;41883;49.544;8.646;2023-03-21T14:11:49;100406.94;;;14.10;55.55
55685;BME280;41883;49.544;8.646;2023-03-21T14:14:16;100406.06;;;13.95;53.77
55685;BME280;41883;49.544;8.646;2023-03-21T14:16:42;100408.47;;;13.81;54.50
55685;BME280;41883;49.544;8.646;2023-03-21T14:19:09;100407.03;;;13.71;55.11
55685;BME280;41883;49.544;8.646;2023-03-21T14:21:36;100401.00;;;13.54;55.92
55685;BME280;41883;49.544;8.646;2023-03-21T14:24:11;100398.38;;;13.46;56.63
55685;BME280;41883;49.544;8.646;2023-03-21T14:26:48;100391.78;;;13.33;58.04
55685;BME280;41883;49.544;8.646;2023-03-21T14:29:27;100392.16;;;13.30;58.11
55685;BME280;41883;49.544;8.646;2023-03-21T14:31:59;100395.78;;;13.29;65.03
55685;BME280;41883;49.544;8.646;2023-03-21T14:34:36;100390.28;;;13.23;61.05
55685;BME280;41883;49.544;8.646;2023-03-21T14:37:06;100383.84;;;13.17;62.70
55685;BME280;41883;49.544;8.646;2023-03-21T14:39:43;100385.91;;;13.07;69.29
55685;BME280;41883;49.544;8.646;2023-03-21T14:42:13;100395.22;;;12.94;72.00
55685;BME280;41883;49.544;8.646;2023-03-21T14:44:41;100396.06;;;12.87;68.05
55685;BME280;41883;49.544;8.646;2023-03-21T14:47:30;100399.25;;;12.74;70.47
55685;BME280;41883;49.544;8.646;2023-03-21T14:50:05;100398.94;;;12.69;68.95
55685;BME280;41883;49.544;8.646;2023-03-21T14:52:33;100392.09;;;12.74;68.28
55685;BME280;41883;49.544;8.646;2023-03-21T14:55:13;100396.56;;;12.90;68.23
55685;BME280;41883;49.544;8.646;2023-03-21T14:57:54;100394.56;;;12.92;69.54
55685;BME280;41883;49.544;8.646;2023-03-21T15:00:28;100389.06;;;12.94;72.74
55685;BME280;41883;49.544;8.646;2023-03-21T15:03:04;100384.94;;;12.91;72.94
55685;BME280;41883;49.544;8.646;2023-03-21T15:05:44;100377.63;;;12.93;69.55
55685;BME280;41883;49.544;8.646;2023-03-21T15:10:38;100360.88;;;12.93;70.21
55685;BME280;41883;49.544;8.646;2023-03-21T15:13:12;100342.31;;;12.93;70.33
55685;BME280;41883;49.544;8.646;2023-03-21T15:15:38;100320.47;;;12.83;72.53
55685;BME280;41883;49.544;8.646;2023-03-21T15:18:04;100303.59;;;12.67;74.39
55685;BME280;41883;49.544;8.646;2023-03-21T15:20:31;100319.72;;;12.49;74.90
55685;BME280;41883;49.544;8.646;2023-03-21T15:23:00;100330.66;;;12.46;74.89
55685;BME280;41883;49.544;8.646;2023-03-21T15:25:29;100337.31;;;12.42;75.13
55685;BME280;41883;49.544;8.646;2023-03-21T15:27:57;100339.47;;;12.30;75.63
55685;BME280;41883;49.544;8.646;2023-03-21T15:30:23;100347.13;;;12.25;74.49
55685;BME280;41883;49.544;8.646;2023-03-21T15:32:49;100354.56;;;12.22;74.32
55685;BME280;41883;49.544;8.646;2023-03-21T15:35:17;100362.19;;;12.17;79.38
55685;BME280;41883;49.544;8.646;2023-03-21T15:37:50;100361.53;;;12.23;75.26
55685;BME280;41883;49.544;8.646;2023-03-21T15:40:20;100357.69;;;12.33;73.66
55685;BME280;41883;49.544;8.646;2023-03-21T15:42:46;100361.84;;;12.44;72.19
55685;BME280;41883;49.544;8.646;2023-03-21T15:45:21;100348.91;;;12.49;72.12
55685;BME280;41883;49.544;8.646;2023-03-21T15:50:57;100343.22;;;12.61;71.43
55685;BME280;41883;49.544;8.646;2023-03-21T15:53:03;100340.91;;;12.66;70.57
55685;BME280;41883;49.544;8.646;2023-03-21T15:55:37;100340.41;;;12.70;70.40
55685;BME280;41883;49.544;8.646;2023-03-21T15:58:07;100343.22;;;12.69;71.03
55685;BME280;41883;49.544;8.646;2023-03-21T16:00:38;100342.41;;;12.68;70.85
55685;BME280;41883;49.544;8.646;2023-03-21T16:03:14;100319.81;;;12.72;70.66
55685;BME280;41883;49.544;8.646;2023-03-21T16:06:00;100321.66;;;12.72;70.37
55685;BME280;41883;49.544;8.646;2023-03-21T16:08:26;100303.38;;;12.77;69.70
55685;BME280;41883;49.544;8.646;2023-03-21T16:10:51;100300.56;;;12.79;69.86
55685;BME280;41883;49.544;8.646;2023-03-21T16:13:16;100284.00;;;12.77;70.87